Svyataya Anna — UUCV — position and weather

sailwx.info

Track history (hours):
 
Tides and Currents Weather Stations Pressure Air Temp Water Temp Dewpoint Dewpoint Depression Visibility Wind Speed Wind Dir Waves Ship Positions

Svyataya Anna

Last reported at 2016-Apr-21 15:31 UTC. Time now 2016-May-01 19:16 UTC.
Position N 46°24' E 030°48'.
Warning: this ship's position is 10 days out of date.

Length 93 m; draft 3.3 m.

Type: Cargo ship. MMSI: 272068800.

Date/timePositionNaut miles runAvg speedWind from/ knotsBaromVisibWave heightAir tempDewpointWater temp
2016-Apr-21 15:31N 46°24' E 030°48'5 5.7
2016-Apr-21 14:33N 46°29' E 030°50'5 5.0
2016-Apr-21 13:33N 46°32' E 030°56'33 2.3
2016-Apr-20 23:03N 46°36' E 031°44'0 0.0
2016-Apr-20 22:33N 46°36' E 031°44'0 0.0
2016-Apr-20 21:34N 46°36' E 031°44'0 0.0
2016-Apr-20 19:29N 46°36' E 031°44'0 0.0
2016-Apr-20 17:14N 46°36' E 031°44'0 0.1
2016-Apr-20 16:34N 46°36' E 031°44'0 0.0
2016-Apr-20 14:33N 46°36' E 031°44'0 0.0
2016-Apr-20 13:21N 46°36' E 031°44'0 0.0
2016-Apr-20 11:23N 46°36' E 031°44'0 0.0
2016-Apr-20 10:10N 46°36' E 031°44'0 0.0
2016-Apr-20 04:15N 46°36' E 031°44'0 0.6
2016-Apr-20 03:33N 46°36' E 031°44'5 5.1
2016-Apr-20 02:33N 46°35' E 031°51'5 5.2
2016-Apr-20 01:33N 46°33' E 031°59'5 5.3
2016-Apr-20 00:33N 46°32' E 032°06'125 3.0
2016-Apr-18 07:05N 47°31' E 034°47'9 5.4
2016-Apr-18 05:21N 47°34' E 035°00'4 5.2
2016-Apr-18 04:33N 47°37' E 035°04'5 5.2
2016-Apr-18 03:33N 47°42' E 035°08'5 4.7
2016-Apr-18 02:33N 47°47' E 035°09'2 2.1
2016-Apr-18 01:33N 47°49' E 035°09'0 0.0
2016-Apr-18 00:33N 47°49' E 035°09'0 0.0
2016-Apr-17 23:33N 47°49' E 035°09'0 0.0
2016-Apr-17 22:33N 47°49' E 035°09'0 0.0
2016-Apr-17 21:33N 47°49' E 035°09'0 0.0
2016-Apr-17 20:33N 47°49' E 035°09'0 0.0
2016-Apr-17 19:33N 47°49' E 035°09'0 0.0
2016-Apr-17 18:33N 47°49' E 035°09'0 0.0
2016-Apr-17 17:33N 47°49' E 035°09'0 0.0
2016-Apr-17 16:33N 47°49' E 035°09'4 4.0
2016-Apr-17 15:33N 47°52' E 035°05'0 0.1
2016-Apr-17 14:33N 47°52' E 035°05'1 0.0
2016-Apr-16 17:32N 47°52' E 035°06'0 0.1
2016-Apr-16 16:33N 47°52' E 035°06'0 0.0
2016-Apr-16 07:27N 47°52' E 035°06'0 0.0
2016-Apr-16 06:33N 47°52' E 035°06'0 0.0
2016-Apr-16 05:33N 47°52' E 035°06'1 0.8
2016-Apr-16 04:33N 47°52' E 035°06'2 2.3
2016-Apr-16 03:33N 47°50' E 035°07'2 2.0
2016-Apr-16 02:33N 47°49' E 035°09'0 0.0
2016-Apr-16 01:33N 47°49' E 035°09'0 0.0
2016-Apr-16 00:33N 47°49' E 035°09'0 0.0
2016-Apr-15 23:33N 47°49' E 035°09'1 1.2
2016-Apr-15 22:33N 47°47' E 035°10'5 5.2
2016-Apr-15 21:33N 47°42' E 035°08'5 4.9
2016-Apr-15 20:33N 47°38' E 035°05'144 3.8
2016-Apr-14 06:33N 46°34' E 031°56'54 1.5
2016-Apr-12 17:18N 46°19' E 030°40'0 0.0
2016-Apr-12 16:16N 46°19' E 030°40'0 0.0
2016-Apr-12 15:27N 46°19' E 030°40'0 0.0
2016-Apr-12 13:27N 46°19' E 030°40'0 0.0
2016-Apr-12 12:32N 46°19' E 030°40'  
Track history (hours):
 
Tides and Currents Weather Stations Pressure Air Temp Water Temp Dewpoint Dewpoint Depression Visibility Wind Speed Wind Dir Waves Ship Positions

Svyataya Anna

Last reported at 2016-Apr-21 15:31 UTC. Time now 2016-May-01 19:16 UTC.
Position N 46°24' E 030°48'.
Warning: this ship's position is 10 days out of date.

Length 93 m; draft 3.3 m.

Type: Cargo ship. MMSI: 272068800.

Date/timePositionNaut miles runAvg speedWind from/ knotsBaromVisibWave heightAir tempDewpointWater temp
2016-Apr-21 15:31N 46°24' E 030°48'5 5.7
2016-Apr-21 14:33N 46°29' E 030°50'5 5.0
2016-Apr-21 13:33N 46°32' E 030°56'33 2.3
2016-Apr-20 23:03N 46°36' E 031°44'0 0.0
2016-Apr-20 22:33N 46°36' E 031°44'0 0.0
2016-Apr-20 21:34N 46°36' E 031°44'0 0.0
2016-Apr-20 19:29N 46°36' E 031°44'0 0.0
2016-Apr-20 17:14N 46°36' E 031°44'0 0.1
2016-Apr-20 16:34N 46°36' E 031°44'0 0.0
2016-Apr-20 14:33N 46°36' E 031°44'0 0.0
2016-Apr-20 13:21N 46°36' E 031°44'0 0.0
2016-Apr-20 11:23N 46°36' E 031°44'0 0.0
2016-Apr-20 10:10N 46°36' E 031°44'0 0.0
2016-Apr-20 04:15N 46°36' E 031°44'0 0.6
2016-Apr-20 03:33N 46°36' E 031°44'5 5.1
2016-Apr-20 02:33N 46°35' E 031°51'5 5.2
2016-Apr-20 01:33N 46°33' E 031°59'5 5.3
2016-Apr-20 00:33N 46°32' E 032°06'125 3.0
2016-Apr-18 07:05N 47°31' E 034°47'9 5.4
2016-Apr-18 05:21N 47°34' E 035°00'4 5.2
2016-Apr-18 04:33N 47°37' E 035°04'5 5.2
2016-Apr-18 03:33N 47°42' E 035°08'5 4.7
2016-Apr-18 02:33N 47°47' E 035°09'2 2.1
2016-Apr-18 01:33N 47°49' E 035°09'0 0.0
2016-Apr-18 00:33N 47°49' E 035°09'0 0.0
2016-Apr-17 23:33N 47°49' E 035°09'0 0.0
2016-Apr-17 22:33N 47°49' E 035°09'0 0.0
2016-Apr-17 21:33N 47°49' E 035°09'0 0.0
2016-Apr-17 20:33N 47°49' E 035°09'0 0.0
2016-Apr-17 19:33N 47°49' E 035°09'0 0.0
2016-Apr-17 18:33N 47°49' E 035°09'0 0.0
2016-Apr-17 17:33N 47°49' E 035°09'0 0.0
2016-Apr-17 16:33N 47°49' E 035°09'4 4.0
2016-Apr-17 15:33N 47°52' E 035°05'0 0.1
2016-Apr-17 14:33N 47°52' E 035°05'1 0.0
2016-Apr-16 17:32N 47°52' E 035°06'0 0.1
2016-Apr-16 16:33N 47°52' E 035°06'0 0.0
2016-Apr-16 07:27N 47°52' E 035°06'0 0.0
2016-Apr-16 06:33N 47°52' E 035°06'0 0.0
2016-Apr-16 05:33N 47°52' E 035°06'1 0.8
2016-Apr-16 04:33N 47°52' E 035°06'2 2.3
2016-Apr-16 03:33N 47°50' E 035°07'2 2.0
2016-Apr-16 02:33N 47°49' E 035°09'0 0.0
2016-Apr-16 01:33N 47°49' E 035°09'0 0.0
2016-Apr-16 00:33N 47°49' E 035°09'0 0.0
2016-Apr-15 23:33N 47°49' E 035°09'1 1.2
2016-Apr-15 22:33N 47°47' E 035°10'5 5.2
2016-Apr-15 21:33N 47°42' E 035°08'5 4.9
2016-Apr-15 20:33N 47°38' E 035°05'144 3.8
2016-Apr-14 06:33N 46°34' E 031°56'54 1.5
2016-Apr-12 17:18N 46°19' E 030°40'0 0.0
2016-Apr-12 16:16N 46°19' E 030°40'0 0.0
2016-Apr-12 15:27N 46°19' E 030°40'0 0.0
2016-Apr-12 13:27N 46°19' E 030°40'0 0.0
2016-Apr-12 12:32N 46°19' E 030°40'  

Dump ship's entire track history